Time;durP1;ratioP1;P1;durP2;ratioP2;P2;SDS_P1;SDS_P2;PMS_P1;PMS_P2;Temp;Humidity;BMP_temperature;BMP_pressure;BME280_temperature;BME280_humidity;BME280_pressure;Samples;Min_cycle;Max_cycle;Signal;HPM_P1;HPM_P2
2022/03/12 00:01:57;;;;;;;13.20;4.40;;;;;;;-7.70;85.94;101957.64;1692034;85;21097;-61
2022/03/12 00:04:24;;;;;;;9.07;4.20;;;;;;;-7.69;85.90;101964.75;1692292;84;21007;-61
2022/03/12 00:06:53;;;;;;;9.47;4.43;;;;;;;-7.70;85.85;101962.64;1692099;84;21531;-60
2022/03/12 00:09:20;;;;;;;7.63;4.37;;;;;;;-7.73;85.81;101961.21;1692281;85;21007;-61
2022/03/12 00:11:51;;;;;;;8.13;4.33;;;;;;;-7.76;85.61;101964.81;1692019;84;21034;-61
2022/03/12 00:14:16;;;;;;;9.43;4.17;;;;;;;-7.76;85.58;101957.31;1691868;83;21547;-61
2022/03/12 00:16:43;;;;;;;7.93;4.00;;;;;;;-7.79;85.40;101963.78;1692305;85;21030;-60
2022/03/12 00:19:10;;;;;;;9.67;4.80;;;;;;;-7.77;84.82;101959.33;1692264;85;21062;-61
2022/03/12 00:21:43;;;;;;;8.97;4.10;;;;;;;-7.78;84.57;101963.02;1692135;85;21078;-61
2022/03/12 00:24:08;;;;;;;8.00;4.00;;;;;;;-7.76;84.27;101966.06;1691955;84;21065;-61
2022/03/12 00:26:40;;;;;;;11.60;4.10;;;;;;;-7.78;83.85;101961.77;1692232;85;21090;-61
2022/03/12 00:29:05;;;;;;;9.53;4.30;;;;;;;-7.80;83.83;101962.92;1692058;84;21546;-60
2022/03/12 00:31:33;;;;;;;9.40;4.00;;;;;;;-7.79;83.87;101961.28;1692054;84;21082;-60
2022/03/12 00:33:59;;;;;;;8.20;3.73;;;;;;;-7.77;83.73;101959.33;1688949;84;21003;-61
2022/03/12 00:36:26;;;;;;;8.30;3.80;;;;;;;-7.80;83.70;101955.43;1683649;85;21086;-60
2022/03/12 00:38:53;;;;;;;8.87;3.97;;;;;;;-7.77;83.32;101959.72;1683942;85;21059;-60
2022/03/12 00:41:22;;;;;;;9.77;4.37;;;;;;;-7.81;83.74;101961.19;1683624;85;21097;-61
2022/03/12 00:43:49;;;;;;;8.67;4.07;;;;;;;-7.84;83.68;101952.30;1683916;84;21131;-62
2022/03/12 00:46:16;;;;;;;9.03;4.33;;;;;;;-7.86;83.78;101953.84;1683929;84;21051;-61
2022/03/12 00:48:42;;;;;;;9.43;4.20;;;;;;;-7.90;84.41;101954.06;1683796;85;21515;-60
2022/03/12 00:51:10;;;;;;;6.97;3.70;;;;;;;-7.93;83.98;101956.38;1683980;85;21085;-61
2022/03/12 00:53:39;;;;;;;8.27;3.80;;;;;;;-7.88;83.69;101957.91;1683641;85;21095;-62
2022/03/12 00:56:08;;;;;;;7.67;4.23;;;;;;;-7.93;84.01;101953.88;1684094;85;21491;-61
2022/03/12 00:58:35;;;;;;;6.13;3.27;;;;;;;-7.94;83.94;101957.17;1683937;85;21050;-60
2022/03/12 01:01:03;;;;;;;6.93;3.40;;;;;;;-7.95;83.92;101957.09;1683934;84;21035;-61
2022/03/12 01:03:31;;;;;;;10.97;3.57;;;;;;;-7.99;83.69;101954.80;1683648;85;21078;-60
2022/03/12 01:06:02;;;;;;;7.20;3.60;;;;;;;-8.00;83.91;101956.84;1683796;85;21078;-61
2022/03/12 01:08:31;;;;;;;7.90;3.63;;;;;;;-8.01;83.85;101957.60;1684151;85;21081;-61
2022/03/12 01:11:04;;;;;;;7.37;3.80;;;;;;;-8.01;84.36;101958.00;1671402;85;21076;-60
2022/03/12 01:13:32;;;;;;;9.97;3.77;;;;;;;-8.08;84.55;101960.56;1683755;84;21543;-61
2022/03/12 01:16:01;;;;;;;8.83;3.67;;;;;;;-8.12;84.89;101959.92;1683633;85;21079;-60
2022/03/12 01:18:29;;;;;;;9.93;4.00;;;;;;;-8.13;84.60;101963.17;1683809;85;21075;-60
2022/03/12 01:21:08;;;;;;;6.67;3.23;;;;;;;-8.17;84.53;101967.53;1683609;85;21098;-60
2022/03/12 01:23:35;;;;;;;7.53;3.50;;;;;;;-8.18;84.31;101965.43;1684307;84;21071;-60
2022/03/12 01:26:01;;;;;;;7.60;3.60;;;;;;;-8.16;83.57;101965.52;1683865;85;21007;-60
2022/03/12 01:28:29;;;;;;;7.43;3.40;;;;;;;-8.21;83.65;101958.14;1683793;85;21551;-60
2022/03/12 01:30:58;;;;;;;7.40;3.23;;;;;;;-8.19;83.76;101960.34;1683773;85;21110;-60
2022/03/12 01:33:24;;;;;;;7.83;3.50;;;;;;;-8.24;83.70;101965.48;1683747;84;21008;-61
2022/03/12 01:35:51;;;;;;;9.60;4.30;;;;;;;-8.21;83.55;101965.64;1692258;85;21562;-61
2022/03/12 01:38:24;;;;;;;7.20;3.30;;;;;;;-8.27;83.60;101974.92;1692100;84;21054;-60
2022/03/12 01:40:52;;;;;;;7.00;3.70;;;;;;;-8.26;83.60;101971.23;1691765;84;21495;-60
2022/03/12 01:43:21;;;;;;;7.60;3.70;;;;;;;-8.32;83.61;101973.40;1692298;84;21563;-60
2022/03/12 01:45:50;;;;;;;7.80;3.70;;;;;;;-8.34;83.19;101974.09;1691912;85;21050;-61
2022/03/12 01:48:17;;;;;;;7.77;3.30;;;;;;;-8.36;82.67;101977.75;1692290;85;21023;-60
2022/03/12 01:50:44;;;;;;;8.03;3.43;;;;;;;-8.41;82.79;101980.42;1692117;84;21523;-60
2022/03/12 01:53:11;;;;;;;7.17;3.50;;;;;;;-8.41;83.00;101984.16;1692649;83;21108;-60
2022/03/12 01:55:39;;;;;;;8.40;3.30;;;;;;;-8.45;82.57;101972.28;1692032;84;21051;-60
2022/03/12 01:58:08;;;;;;;6.10;3.23;;;;;;;-8.48;81.80;101971.70;1692227;83;21093;-61
2022/03/12 02:00:43;;;;;;;7.27;3.53;;;;;;;-8.51;81.41;101976.93;1692173;84;21034;-60
2022/03/12 02:03:12;;;;;;;5.07;3.17;;;;;;;-8.56;81.14;101980.78;1674548;85;21017;-59
2022/03/12 02:05:40;;;;;;;10.03;3.20;;;;;;;-8.57;80.65;101971.59;1692114;85;21071;-60
2022/03/12 02:08:13;;;;;;;10.20;3.67;;;;;;;-8.59;80.38;101979.37;1692177;83;21571;-60
2022/03/12 02:10:43;;;;;;;8.90;3.40;;;;;;;-8.61;80.16;101974.68;1653185;85;21027;-60
2022/03/12 02:13:11;;;;;;;7.27;3.13;;;;;;;-8.63;80.00;101976.23;1692215;84;21054;-60
2022/03/12 02:15:40;;;;;;;8.10;3.20;;;;;;;-8.67;80.15;101978.53;1692036;84;21055;-60
2022/03/12 02:18:08;;;;;;;8.50;3.30;;;;;;;-8.68;80.47;101978.08;1692187;83;21103;-60
2022/03/12 02:20:38;;;;;;;9.27;3.30;;;;;;;-8.68;80.33;101977.19;1692308;85;21046;-60
2022/03/12 02:23:10;;;;;;;6.57;3.03;;;;;;;-8.70;80.32;101978.38;1691954;83;21038;-60
2022/03/12 02:25:38;;;;;;;6.43;2.87;;;;;;;-8.70;80.59;101990.85;1692479;83;21149;-61
2022/03/12 02:28:19;;;;;;;8.43;3.50;;;;;;;-8.73;80.74;101991.05;1692247;83;21567;-61
2022/03/12 02:30:51;;;;;;;8.10;3.10;;;;;;;-8.76;80.29;101985.87;1692173;85;21133;-60
2022/03/12 02:33:27;;;;;;;7.43;3.33;;;;;;;-8.74;80.40;101991.45;1692034;84;21007;-61
2022/03/12 02:35:47;;;;;;;6.93;3.50;;;;;;;-8.76;80.78;101985.87;1683908;83;21106;-61
2022/03/12 02:38:16;;;;;;;7.73;3.30;;;;;;;-8.78;80.73;101992.02;1683645;85;21072;-61
2022/03/12 02:40:44;;;;;;;6.33;3.00;;;;;;;-8.77;80.75;101987.52;1683865;85;21087;-60
2022/03/12 02:43:14;;;;;;;7.57;3.00;;;;;;;-8.79;80.91;101985.70;1684211;85;21064;-60
2022/03/12 02:45:41;;;;;;;6.57;3.37;;;;;;;-8.80;80.94;101987.70;1683718;85;21062;-60
2022/03/12 02:48:09;;;;;;;6.23;3.07;;;;;;;-8.80;81.78;101986.46;1683768;84;20980;-60
2022/03/12 02:50:37;;;;;;;6.07;2.87;;;;;;;-8.85;81.74;101986.59;1683758;85;21693;-60
2022/03/12 02:53:05;;;;;;;7.13;3.60;;;;;;;-8.86;81.87;101983.22;1683783;85;21039;-61
2022/03/12 02:55:34;;;;;;;7.17;3.47;;;;;;;-8.86;81.93;101985.70;1683598;85;21055;-60
2022/03/12 02:58:01;;;;;;;8.63;3.10;;;;;;;-8.90;81.83;101977.20;1683665;84;21059;-60
2022/03/12 03:00:29;;;;;;;6.93;3.40;;;;;;;-8.88;81.93;101985.64;1683776;85;21464;-61
2022/03/12 03:02:56;;;;;;;8.90;3.17;;;;;;;-8.89;81.65;101980.55;1670939;84;21047;-60
2022/03/12 03:08:04;;;;;;;6.27;3.03;;;;;;;-8.91;81.74;101978.36;1683923;85;21020;-60
2022/03/12 03:10:40;;;;;;;7.37;3.20;;;;;;;-8.90;81.50;101984.69;1683937;85;21574;-60
2022/03/12 03:13:21;;;;;;;7.03;3.20;;;;;;;-8.87;81.67;101984.00;1683760;85;21063;-60
2022/03/12 03:16:01;;;;;;;6.27;3.10;;;;;;;-8.92;81.89;101984.99;1683935;85;21039;-60
2022/03/12 03:18:34;;;;;;;8.73;3.20;;;;;;;-8.96;82.44;101985.94;1683829;85;21093;-60
2022/03/12 03:21:09;;;;;;;6.45;3.20;;;;;;;-8.94;83.02;101991.89;1684090;85;21023;-60
2022/03/12 03:23:37;;;;;;;7.80;3.40;;;;;;;-8.99;82.95;101982.03;1683793;85;21097;-60
2022/03/12 03:26:06;;;;;;;8.13;3.07;;;;;;;-8.99;82.82;101987.03;1683914;84;21051;-60
2022/03/12 03:28:34;;;;;;;8.00;3.40;;;;;;;-9.01;82.80;101991.06;1683896;85;20992;-60
2022/03/12 03:31:07;;;;;;;6.67;3.47;;;;;;;-9.01;83.17;101988.17;1683655;84;21075;-60
2022/03/12 03:33:34;;;;;;;9.38;3.60;;;;;;;-9.04;83.85;101993.00;1683865;84;21080;-60
2022/03/12 03:36:01;;;;;;;10.30;4.40;;;;;;;-9.08;84.95;101991.95;1683641;84;21079;-59
2022/03/12 03:38:28;;;;;;;10.63;4.10;;;;;;;-9.08;85.75;101998.19;1683518;85;21064;-59
2022/03/12 03:40:56;;;;;;;9.97;4.07;;;;;;;-9.12;86.75;101998.77;1683650;85;21015;-59
2022/03/12 03:43:24;;;;;;;8.50;4.03;;;;;;;-9.15;87.55;102005.20;1683997;85;21066;-60
2022/03/12 03:45:55;;;;;;;14.10;5.40;;;;;;;-9.17;88.65;102009.23;1683692;85;21126;-61
2022/03/12 03:48:24;;;;;;;13.10;5.87;;;;;;;-9.19;89.42;102004.15;1683315;85;21082;-60
2022/03/12 03:50:53;;;;;;;12.07;5.03;;;;;;;-9.21;89.98;102004.44;1683881;84;21022;-61
2022/03/12 03:53:23;;;;;;;11.00;4.47;;;;;;;-9.23;90.59;102010.97;1683512;85;21468;-60
2022/03/12 03:55:54;;;;;;;10.43;4.23;;;;;;;-9.24;91.26;102009.27;1683845;85;21068;-60
2022/03/12 03:58:21;;;;;;;13.37;4.77;;;;;;;-9.28;91.63;102005.72;1683732;85;21528;-59
2022/03/12 04:01:01;;;;;;;9.00;4.00;;;;;;;-9.32;92.02;102004.20;1683649;85;21046;-60
2022/03/12 04:03:37;;;;;;;10.90;4.23;;;;;;;-9.34;92.77;102007.84;1683534;84;21040;-59
2022/03/12 04:06:05;;;;;;;13.37;4.57;;;;;;;-9.37;93.35;102006.39;1683971;85;21004;-60
2022/03/12 04:08:35;;;;;;;12.33;4.50;;;;;;;-9.41;94.13;102005.73;1683675;85;20999;-60
2022/03/12 04:11:05;;;;;;;9.13;4.37;;;;;;;-9.41;95.43;102009.46;1683902;85;21071;-61
2022/03/12 04:13:35;;;;;;;12.67;5.03;;;;;;;-9.40;96.46;102016.58;1683636;85;21055;-59
2022/03/12 04:16:02;;;;;;;9.73;4.90;;;;;;;-9.37;97.32;102014.27;1683873;85;21007;-59
2022/03/12 04:18:31;;;;;;;13.17;5.37;;;;;;;-9.35;98.07;102022.70;1684124;85;21665;-60
2022/03/12 04:20:58;;;;;;;15.10;5.00;;;;;;;-9.33;98.99;102018.27;1683674;84;21575;-60
2022/03/12 04:23:27;;;;;;;12.10;5.53;;;;;;;-9.30;99.81;102020.97;1683874;85;21043;-60
2022/03/12 04:25:58;;;;;;;11.27;5.50;;;;;;;-9.27;100.00;102021.53;1683693;85;21087;-60
2022/03/12 04:28:32;;;;;;;10.93;5.23;;;;;;;-9.27;100.00;102019.04;1683929;85;21511;-61
2022/03/12 04:31:01;;;;;;;16.37;5.07;;;;;;;-9.21;100.00;102027.28;1683825;85;21086;-60
2022/03/12 04:33:32;;;;;;;13.93;5.80;;;;;;;-9.19;100.00;102035.72;1683926;85;21027;-60
2022/03/12 04:36:00;;;;;;;21.07;8.37;;;;;;;-9.22;100.00;102038.02;1689702;83;21080;-59
2022/03/12 04:38:27;;;;;;;35.00;11.00;;;;;;;-9.20;100.00;102037.36;1692503;85;21078;-60
2022/03/12 04:40:55;;;;;;;39.27;12.73;;;;;;;-9.18;100.00;102038.31;1692739;83;21039;-60
2022/03/12 04:43:25;;;;;;;25.13;9.43;;;;;;;-9.13;100.00;102043.18;1692742;85;21125;-60
2022/03/12 04:45:55;;;;;;;25.73;8.57;;;;;;;-9.12;100.00;102046.56;1692533;85;21578;-60
2022/03/12 04:48:23;;;;;;;20.23;8.10;;;;;;;-9.12;100.00;102047.41;1692800;84;21550;-60
2022/03/12 04:50:52;;;;;;;17.63;7.10;;;;;;;-9.10;100.00;102052.11;1672790;85;21074;-61
2022/03/12 04:53:21;;;;;;;14.17;6.77;;;;;;;-9.07;100.00;102052.28;1692719;85;21043;-60
2022/03/12 04:55:50;;;;;;;16.80;6.67;;;;;;;-8.99;100.00;102044.02;1692871;83;21054;-60
2022/03/12 04:58:19;;;;;;;17.70;6.93;;;;;;;-8.94;100.00;102053.02;1692761;84;20999;-60
2022/03/12 05:00:47;;;;;;;18.47;7.13;;;;;;;-8.83;100.00;102043.30;1692742;84;21503;-60
2022/03/12 05:03:23;;;;;;;16.70;7.50;;;;;;;-8.76;99.81;102043.27;1692809;84;21479;-60
2022/03/12 05:05:53;;;;;;;14.83;6.53;;;;;;;-8.69;99.62;102034.14;1692878;85;21507;-61
2022/03/12 05:08:25;;;;;;;21.47;6.93;;;;;;;-8.66;96.58;102038.05;1692794;84;21022;-60
2022/03/12 05:10:55;;;;;;;18.27;7.27;;;;;;;-8.63;95.57;102043.63;1692374;84;21034;-60
2022/03/12 05:13:27;;;;;;;16.65;7.00;;;;;;;-8.55;94.71;102054.53;1690780;85;21554;-60
2022/03/12 05:16:01;;;;;;;19.37;7.33;;;;;;;-8.44;93.80;102051.80;1692746;84;21050;-60
2022/03/12 05:18:27;;;;;;;17.67;6.90;;;;;;;-8.38;93.25;102057.96;1692881;84;21600;-61
2022/03/12 05:20:55;;;;;;;14.00;5.77;;;;;;;-8.30;92.58;102062.16;1692821;85;21082;-61
2022/03/12 05:23:24;;;;;;;12.37;5.53;;;;;;;-8.24;89.27;102055.02;1692702;84;21016;-60
2022/03/12 05:25:54;;;;;;;14.33;5.73;;;;;;;-8.09;87.81;102055.02;1692809;84;21562;-60
2022/03/12 05:28:32;;;;;;;14.87;6.37;;;;;;;-8.02;85.28;102048.36;1692429;85;21045;-61
2022/03/12 05:31:04;;;;;;;17.77;5.77;;;;;;;-8.01;83.14;102053.81;1693784;83;21050;-60
2022/03/12 05:33:33;;;;;;;17.50;6.13;;;;;;;-7.96;82.01;102056.59;1705194;83;21085;-60
2022/03/12 05:36:00;;;;;;;17.73;7.30;;;;;;;-7.91;80.95;102054.80;1705247;83;20996;-60
2022/03/12 05:38:32;;;;;;;16.13;6.97;;;;;;;-7.83;80.49;102064.37;1706002;83;21027;-60
2022/03/12 05:40:59;;;;;;;19.07;7.53;;;;;;;-7.74;80.47;102056.16;1708337;83;21070;-59
2022/03/12 05:43:27;;;;;;;25.00;9.23;;;;;;;-7.75;80.19;102061.91;1700404;83;21023;-60
2022/03/12 05:45:56;;;;;;;19.83;8.17;;;;;;;-7.67;80.17;102061.55;1700748;83;21538;-60
2022/03/12 05:48:23;;;;;;;22.30;8.83;;;;;;;-7.62;80.16;102068.44;1706311;83;21022;-60
2022/03/12 05:50:50;;;;;;;21.20;8.93;;;;;;;-7.67;80.12;102064.05;1707738;83;21063;-60
2022/03/12 05:53:19;;;;;;;20.50;8.67;;;;;;;-7.56;80.95;102063.77;1706011;83;21530;-60
2022/03/12 05:55:48;;;;;;;19.80;9.23;;;;;;;-7.55;80.34;102064.27;1684157;83;21030;-60
2022/03/12 05:58:17;;;;;;;17.10;8.37;;;;;;;-7.57;79.67;102071.67;1706683;83;22268;-61
2022/03/12 06:00:52;;;;;;;17.53;7.80;;;;;;;-7.61;79.36;102068.93;1705125;83;20998;-61
2022/03/12 06:03:17;;;;;;;17.97;7.50;;;;;;;-7.66;78.71;102066.19;1705764;83;21047;-60
2022/03/12 06:05:45;;;;;;;15.23;7.30;;;;;;;-7.54;78.89;102064.72;1708461;83;21051;-59
2022/03/12 06:08:14;;;;;;;12.80;6.30;;;;;;;-7.46;78.80;102068.50;1705856;83;21054;-60
2022/03/12 06:10:46;;;;;;;17.30;7.37;;;;;;;-7.46;78.10;102072.25;1709099;83;21011;-59
2022/03/12 06:13:15;;;;;;;16.23;7.10;;;;;;;-7.44;77.66;102069.44;1705538;83;21027;-60
2022/03/12 06:15:39;;;;;;;16.10;7.03;;;;;;;-7.38;77.44;102068.92;1707694;83;21000;-61
2022/03/12 06:18:08;;;;;;;17.70;7.53;;;;;;;-7.24;77.35;102065.52;1708042;83;21046;-62
2022/03/12 06:20:37;;;;;;;15.53;7.13;;;;;;;-7.13;77.36;102061.11;1704321;83;20971;-62
2022/03/12 06:23:04;;;;;;;14.00;7.57;;;;;;;-7.19;76.22;102059.53;1705122;83;20971;-61
2022/03/12 06:25:34;;;;;;;19.33;7.90;;;;;;;-7.24;75.36;102060.52;1705391;83;21019;-60
2022/03/12 06:28:02;;;;;;;18.40;7.47;;;;;;;-7.13;75.39;102057.36;1708248;83;20970;-62
2022/03/12 06:30:31;;;;;;;22.33;8.20;;;;;;;-6.95;75.40;102063.33;1689701;83;21035;-61
2022/03/12 06:32:59;;;;;;;15.87;7.20;;;;;;;-6.96;74.74;102060.73;1708492;83;21046;-60
2022/03/12 06:35:27;;;;;;;15.77;7.77;;;;;;;-6.90;74.39;102057.30;1706825;83;21428;-62
2022/03/12 06:37:56;;;;;;;18.90;7.57;;;;;;;-6.87;72.94;102058.33;1697801;84;21031;-61
2022/03/12 06:40:29;;;;;;;14.77;6.87;;;;;;;-6.74;73.53;102057.70;1691789;84;21015;-59
2022/03/12 06:42:59;;;;;;;14.67;7.03;;;;;;;-6.52;73.64;102063.02;1688649;84;21000;-59
2022/03/12 06:45:28;;;;;;;16.77;6.67;;;;;;;-6.57;71.94;102058.16;1696874;84;21087;-59
2022/03/12 06:47:56;;;;;;;24.63;7.00;;;;;;;-6.52;72.26;102063.42;1699497;84;21051;-60
2022/03/12 06:50:26;;;;;;;14.53;6.33;;;;;;;-6.54;70.94;102062.48;1699142;84;21050;-61
2022/03/12 06:52:55;;;;;;;13.27;5.90;;;;;;;-6.51;70.93;102062.62;1687952;84;21003;-60
2022/03/12 06:55:26;;;;;;;14.03;5.80;;;;;;;-6.43;70.14;102057.59;1683747;85;21032;-61
2022/03/12 06:57:54;;;;;;;11.30;5.50;;;;;;;-6.32;69.54;102057.76;1683793;85;21534;-60
2022/03/12 07:00:25;;;;;;;12.93;5.63;;;;;;;-6.20;68.26;102051.61;1671225;85;21557;-61
2022/03/12 07:02:53;;;;;;;13.70;5.83;;;;;;;-6.07;69.04;102048.93;1693183;84;21050;-61
2022/03/12 07:05:21;;;;;;;14.30;5.30;;;;;;;-5.92;68.62;102051.28;1698219;83;21000;-61
2022/03/12 07:07:50;;;;;;;11.73;5.23;;;;;;;-5.88;67.35;102051.89;1696801;84;20992;-60
2022/03/12 07:10:18;;;;;;;13.20;5.50;;;;;;;-5.99;66.71;102051.41;1705077;84;20976;-61
2022/03/12 07:12:46;;;;;;;13.00;5.37;;;;;;;-5.81;67.29;102046.80;1712359;84;20980;-60
2022/03/12 07:15:18;;;;;;;10.63;4.67;;;;;;;-5.77;64.98;102047.00;1711978;83;21035;-60
2022/03/12 07:17:47;;;;;;;14.03;5.27;;;;;;;-5.56;64.30;102043.37;1712298;84;21515;-61
2022/03/12 07:20:17;;;;;;;10.67;5.27;;;;;;;-5.49;63.97;102045.39;1712200;84;21047;-61
2022/03/12 07:22:48;;;;;;;12.53;4.50;;;;;;;-5.44;63.13;102036.81;1712210;83;21074;-60
2022/03/12 07:25:16;;;;;;;8.57;4.47;;;;;;;-5.34;61.24;102031.83;1712580;84;21019;-60
2022/03/12 07:27:45;;;;;;;14.40;5.57;;;;;;;-5.26;61.62;102036.80;1712021;83;21560;-61
2022/03/12 07:30:14;;;;;;;13.90;5.20;;;;;;;-5.15;62.36;102036.02;1712307;83;21547;-61
2022/03/12 07:32:43;;;;;;;10.17;4.43;;;;;;;-4.99;62.69;102033.39;1703913;83;21091;-61
2022/03/12 07:35:12;;;;;;;16.03;5.40;;;;;;;-4.84;62.55;102024.02;1700168;83;20979;-60
2022/03/12 07:37:40;;;;;;;13.53;4.50;;;;;;;-4.69;62.14;102034.27;1704866;83;21038;-61
2022/03/12 07:40:09;;;;;;;11.37;4.37;;;;;;;-4.73;59.53;102026.14;1708238;83;21019;-61
2022/03/12 07:42:37;;;;;;;11.37;4.70;;;;;;;-4.71;59.05;102026.66;1707184;83;21467;-60
2022/03/12 07:45:08;;;;;;;14.10;4.73;;;;;;;-4.64;58.47;102024.88;1708256;83;21043;-60
2022/03/12 07:47:37;;;;;;;13.43;4.70;;;;;;;-4.48;58.67;102021.73;1709115;83;21554;-60
2022/03/12 07:50:08;;;;;;;9.47;4.63;;;;;;;-4.26;58.73;102023.11;1707468;83;21413;-60
2022/03/12 07:52:36;;;;;;;15.33;5.20;;;;;;;-4.33;58.47;102017.36;1705429;83;20975;-60
2022/03/12 07:55:05;;;;;;;12.43;5.50;;;;;;;-4.05;58.93;102019.34;1707250;82;21046;-59
2022/03/12 07:57:33;;;;;;;11.63;4.80;;;;;;;-3.94;58.50;102015.13;1707414;83;21003;-61
2022/03/12 08:00:00;;;;;;;11.73;4.67;;;;;;;-3.78;57.62;102009.05;1705248;83;21524;-60
2022/03/12 08:02:27;;;;;;;7.93;3.57;;;;;;;-3.86;56.82;102017.55;1706277;83;21003;-59
2022/03/12 08:04:53;;;;;;;7.17;4.07;;;;;;;-3.71;56.42;102010.61;1702676;83;21026;-59
2022/03/12 08:07:21;;;;;;;14.77;4.40;;;;;;;-3.69;56.21;102013.16;1692605;85;21085;-59
2022/03/12 08:09:48;;;;;;;8.77;4.30;;;;;;;-3.49;58.33;102008.52;1712784;83;21011;-60
2022/03/12 08:12:17;;;;;;;15.67;4.83;;;;;;;-3.34;57.90;102007.37;1721404;83;21543;-60
2022/03/12 08:14:45;;;;;;;11.13;4.80;;;;;;;-3.22;56.52;101999.85;1721338;83;21523;-60
2022/03/12 08:17:13;;;;;;;8.40;3.70;;;;;;;-3.20;57.08;102007.84;1721668;83;21007;-60
2022/03/12 08:19:41;;;;;;;8.10;3.83;;;;;;;-3.30;55.18;102002.49;1721268;83;21070;-60
2022/03/12 08:22:10;;;;;;;9.70;4.10;;;;;;;-3.28;53.43;102005.92;1715151;83;21515;-60
2022/03/12 08:24:37;;;;;;;8.13;4.40;;;;;;;-3.47;53.57;102006.03;1707718;83;21078;-60
2022/03/12 08:27:07;;;;;;;10.43;4.40;;;;;;;-3.46;55.74;101998.95;1705301;83;21030;-61
2022/03/12 08:29:33;;;;;;;7.80;4.13;;;;;;;-3.19;56.17;101994.06;1706924;83;21119;-60
2022/03/12 08:32:07;;;;;;;8.23;4.13;;;;;;;-2.98;55.72;101995.25;1708472;83;20996;-61
2022/03/12 08:34:30;;;;;;;8.97;4.30;;;;;;;-2.80;55.67;101995.00;1706161;83;21098;-61
2022/03/12 08:36:57;;;;;;;10.57;3.93;;;;;;;-3.05;54.19;102001.70;1705773;83;21055;-62
2022/03/12 08:39:24;;;;;;;9.93;3.87;;;;;;;-3.06;53.64;101987.82;1705889;83;20999;-62
2022/03/12 08:41:50;;;;;;;7.53;3.83;;;;;;;-3.03;53.21;101991.28;1706846;83;21009;-62
2022/03/12 08:44:17;;;;;;;12.53;4.23;;;;;;;-2.99;54.69;101984.70;1708089;83;21011;-60
2022/03/12 08:46:46;;;;;;;8.27;4.33;;;;;;;-3.10;53.63;101985.97;1704335;83;21003;-60
2022/03/12 08:49:16;;;;;;;8.23;3.90;;;;;;;-2.95;55.15;101978.11;1673447;85;21117;-60
2022/03/12 08:51:43;;;;;;;10.33;4.50;;;;;;;-2.76;54.68;101978.34;1692748;85;20999;-60
2022/03/12 08:54:10;;;;;;;12.60;4.57;;;;;;;-2.70;56.42;101973.09;1692616;85;21027;-60
2022/03/12 08:56:38;;;;;;;9.47;4.07;;;;;;;-2.67;55.71;101978.66;1697363;83;22470;-61
2022/03/12 08:59:07;;;;;;;14.30;4.40;;;;;;;-2.62;53.07;101971.72;1713299;83;21046;-60
2022/03/12 09:01:36;;;;;;;14.77;4.77;;;;;;;-2.53;53.19;101971.56;1721457;83;21026;-61
2022/03/12 09:04:04;;;;;;;9.77;4.80;;;;;;;-2.47;54.46;101973.88;1720876;83;21094;-60
2022/03/12 09:06:32;;;;;;;15.67;4.57;;;;;;;-2.43;53.97;101978.63;1720589;83;21034;-61
2022/03/12 09:08:59;;;;;;;10.63;4.83;;;;;;;-2.59;53.55;101969.69;1720574;83;21019;-61
2022/03/12 09:11:26;;;;;;;7.20;3.40;;;;;;;-2.57;54.78;101968.08;1720505;83;21594;-61
2022/03/12 09:13:54;;;;;;;8.03;3.47;;;;;;;-2.56;51.37;101960.11;1720341;83;21066;-61
2022/03/12 09:16:22;;;;;;;9.13;4.00;;;;;;;-2.71;51.15;101965.50;1720722;83;21019;-60
2022/03/12 09:18:53;;;;;;;9.63;4.30;;;;;;;-2.63;53.24;101968.72;1720540;83;21323;-61
2022/03/12 09:21:20;;;;;;;10.20;3.83;;;;;;;-2.53;52.86;101953.51;1720636;83;21042;-60
2022/03/12 09:23:46;;;;;;;8.83;4.17;;;;;;;-2.46;52.24;101948.25;1720695;83;22221;-60
2022/03/12 09:26:17;;;;;;;10.40;4.40;;;;;;;-2.22;54.34;101955.34;1720426;83;21554;-61
2022/03/12 09:28:43;;;;;;;9.07;3.60;;;;;;;-2.06;54.14;101949.53;1720855;83;21094;-61
2022/03/12 09:31:10;;;;;;;8.80;3.50;;;;;;;-1.93;53.08;101949.48;1720441;82;21124;-61
2022/03/12 09:33:38;;;;;;;7.93;3.47;;;;;;;-1.92;51.44;101949.54;1720495;83;21089;-61
2022/03/12 09:36:06;;;;;;;8.10;3.97;;;;;;;-1.75;52.50;101952.56;1720196;83;21070;-60
2022/03/12 09:38:33;;;;;;;13.40;3.70;;;;;;;-1.71;52.66;101938.37;1711361;84;21027;-60
2022/03/12 09:41:00;;;;;;;9.70;3.63;;;;;;;-1.71;52.17;101941.73;1711287;84;21487;-61
2022/03/12 09:43:26;;;;;;;6.87;3.20;;;;;;;-1.79;50.69;101948.64;1698602;84;21066;-61
2022/03/12 09:45:53;;;;;;;5.63;2.90;;;;;;;-1.72;51.95;101951.81;1711279;84;21607;-61
2022/03/12 09:48:20;;;;;;;10.00;3.10;;;;;;;-1.79;50.17;101949.91;1711184;83;21015;-61
2022/03/12 09:50:47;;;;;;;6.35;3.30;;;;;;;-1.76;50.93;101939.50;1711704;84;21019;-60
2022/03/12 09:53:15;;;;;;;6.43;3.33;;;;;;;-1.69;50.97;101933.80;1708118;83;22565;-60
2022/03/12 09:55:42;;;;;;;7.22;3.42;;;;;;;-1.55;51.06;101942.20;1695497;84;21022;-60
2022/03/12 09:58:09;;;;;;;8.03;3.30;;;;;;;-1.64;50.34;101939.02;1695796;84;21042;-60
2022/03/12 10:00:36;;;;;;;5.93;3.00;;;;;;;-1.51;51.46;101933.48;1699029;84;21039;-61
2022/03/12 10:03:05;;;;;;;5.30;2.93;;;;;;;-1.48;48.55;101928.92;1698975;84;21047;-60
2022/03/12 10:05:31;;;;;;;4.95;2.70;;;;;;;-1.42;48.19;101924.92;1698475;84;20987;-61
2022/03/12 10:07:58;;;;;;;5.20;2.73;;;;;;;-1.55;47.79;101938.00;1696230;83;20984;-61
2022/03/12 10:10:25;;;;;;;7.30;3.20;;;;;;;-1.37;50.24;101926.30;1704225;84;20988;-60
2022/03/12 10:12:52;;;;;;;5.47;2.98;;;;;;;-1.24;50.04;101927.48;1712095;83;21079;-60
2022/03/12 10:15:20;;;;;;;6.33;2.70;;;;;;;-1.16;48.30;101920.97;1712031;84;21015;-60
2022/03/12 10:17:49;;;;;;;4.60;2.75;;;;;;;-1.19;49.10;101922.16;1712260;83;21055;-60
2022/03/12 10:20:17;;;;;;;3.30;2.12;;;;;;;-1.05;48.70;101918.33;1712267;83;20998;-61
2022/03/12 10:22:48;;;;;;;4.03;2.20;;;;;;;-1.14;46.34;101915.96;1712002;84;21507;-60
2022/03/12 10:25:15;;;;;;;3.67;2.08;;;;;;;-1.13;45.14;101917.69;1712176;83;21059;-61
2022/03/12 10:27:45;;;;;;;6.30;2.67;;;;;;;-1.29;45.25;101917.67;1712247;83;21055;-60
2022/03/12 10:30:12;;;;;;;5.62;2.52;;;;;;;-1.38;45.28;101919.52;1712097;84;21027;-60
2022/03/12 10:32:46;;;;;;;8.08;3.20;;;;;;;-1.13;46.06;101900.84;1712138;83;21018;-60
2022/03/12 10:35:19;;;;;;;6.00;3.27;;;;;;;-1.09;47.54;101899.27;1712105;83;21113;-60
2022/03/12 10:37:51;;;;;;;6.42;3.20;;;;;;;-0.84;48.03;101902.00;1712392;83;21022;-59
2022/03/12 10:40:25;;;;;;;4.83;2.65;;;;;;;-0.73;48.10;101904.41;1712350;84;21562;-59
2022/03/12 10:43:03;;;;;;;5.58;2.80;;;;;;;-0.93;46.54;101906.81;1712216;83;20999;-59
2022/03/12 10:45:35;;;;;;;4.42;2.47;;;;;;;-0.83;48.14;101900.78;1712216;83;21090;-59
2022/03/12 10:48:04;;;;;;;5.10;2.30;;;;;;;-0.84;46.24;101899.05;1709192;83;20984;-61
2022/03/12 10:50:41;;;;;;;6.78;2.62;;;;;;;-1.02;45.48;101896.91;1712063;83;21024;-60
2022/03/12 10:53:10;;;;;;;6.35;2.50;;;;;;;-0.76;46.77;101895.88;1711496;84;21603;-60
2022/03/12 10:55:42;;;;;;;4.78;2.10;;;;;;;-0.95;44.27;101886.95;1711338;83;21050;-59
2022/03/12 10:58:16;;;;;;;3.62;2.30;;;;;;;-0.92;45.81;101880.31;1712383;84;21012;-59
2022/03/12 11:00:49;;;;;;;;;;;;;;;-0.88;45.72;101874.52;1701825;84;21055;-61
2022/03/12 11:03:21;;;;;;;4.85;2.40;;;;;;;-0.68;46.72;101876.69;1712335;84;20139;-59
2022/03/12 11:05:50;;;;;;;4.53;2.10;;;;;;;-0.56;46.78;101866.02;1712274;83;20995;-59
2022/03/12 11:08:24;;;;;;;6.17;2.58;;;;;;;-0.66;44.12;101872.52;1712327;84;21058;-59
2022/03/12 11:11:01;;;;;;;7.22;2.67;;;;;;;-0.72;45.04;101864.80;1712408;83;21102;-60
2022/03/12 11:13:39;;;;;;;3.47;2.10;;;;;;;-0.85;44.14;101864.50;1711811;83;21036;-60
2022/03/12 11:16:20;;;;;;;4.47;2.10;;;;;;;-0.77;45.06;101859.63;1711961;83;21071;-59
2022/03/12 11:19:11;;;;;;;4.83;2.37;;;;;;;-0.79;45.27;101863.80;1710513;83;21000;-60
2022/03/12 11:21:43;;;;;;;5.95;2.17;;;;;;;-0.59;45.63;101851.60;1712511;84;21051;-60
2022/03/12 11:24:49;;;;;;;3.12;1.90;;;;;;;-0.51;44.91;101852.63;1712158;83;21070;-60
2022/03/12 11:27:30;;;;;;;3.72;2.00;;;;;;;-0.47;43.99;101851.88;1712049;83;21511;-59
2022/03/12 11:30:04;;;;;;;4.72;2.45;;;;;;;-0.45;45.22;101850.66;1712414;84;21047;-60
2022/03/12 11:32:34;;;;;;;3.50;2.10;;;;;;;-0.56;44.22;101844.52;1712250;83;21031;-60
2022/03/12 11:35:11;;;;;;;4.65;2.00;;;;;;;-0.49;44.61;101847.62;1712137;84;21207;-60